createdAt,value
2022-08-28T00:01:57.881Z,100040.81
2022-08-28T00:04:24.801Z,100043.34
2022-08-28T00:06:51.432Z,100045.00
2022-08-28T00:09:18.145Z,100046.09
2022-08-28T00:11:44.962Z,100049.25
2022-08-28T00:14:11.631Z,100042.41
2022-08-28T00:16:38.651Z,100037.44
2022-08-28T00:19:06.009Z,100036.03
2022-08-28T00:21:33.483Z,100036.84
2022-08-28T00:24:00.578Z,100036.25
2022-08-28T00:26:46.354Z,100042.06
2022-08-28T00:29:13.093Z,100048.13
2022-08-28T00:31:39.960Z,100052.56
2022-08-28T00:34:07.874Z,100042.63
2022-08-28T00:36:42.222Z,100046.00
2022-08-28T00:39:09.700Z,100047.22
2022-08-28T00:41:38.847Z,100056.41
2022-08-28T00:44:21.970Z,100060.34
2022-08-28T00:46:50.660Z,100055.81
2022-08-28T00:49:19.383Z,100043.78
2022-08-28T00:52:05.230Z,100044.63
2022-08-28T00:54:34.110Z,100046.09
2022-08-28T00:57:02.750Z,100046.31
2022-08-28T00:59:29.472Z,100056.31
2022-08-28T01:01:57.900Z,100051.28
2022-08-28T01:04:25.965Z,100049.84
2022-08-28T01:06:54.585Z,100041.75
2022-08-28T01:09:22.769Z,100049.44
2022-08-28T01:11:51.351Z,100051.97
2022-08-28T01:14:20.063Z,100046.97
2022-08-28T01:16:49.236Z,100045.53
2022-08-28T01:19:20.822Z,100050.34
2022-08-28T01:21:50.299Z,100045.97
2022-08-28T01:24:22.841Z,100050.41
2022-08-28T01:26:49.469Z,100043.31
2022-08-28T01:29:16.641Z,100045.38
2022-08-28T01:31:43.555Z,100050.78
2022-08-28T01:34:12.876Z,100045.00
2022-08-28T01:36:39.968Z,100043.56
2022-08-28T01:39:15.329Z,100035.13
2022-08-28T01:41:43.008Z,100046.53
2022-08-28T01:44:09.955Z,100042.44
2022-08-28T01:46:36.772Z,100048.31
2022-08-28T01:49:04.048Z,100042.69
2022-08-28T01:51:35.043Z,100044.34
2022-08-28T01:54:06.514Z,100046.63
2022-08-28T01:56:35.151Z,100046.84
2022-08-28T01:59:04.282Z,100046.03
2022-08-28T02:01:30.986Z,100052.88
2022-08-28T02:03:58.018Z,100051.00
2022-08-28T02:06:25.906Z,100054.75
2022-08-28T02:08:55.571Z,100054.53
2022-08-28T02:11:26.212Z,100058.91
2022-08-28T02:13:54.326Z,100059.75
2022-08-28T02:16:23.467Z,100056.03
2022-08-28T02:18:50.302Z,100056.03
2022-08-28T02:21:18.328Z,100051.69
2022-08-28T02:23:46.240Z,100053.16
2022-08-28T02:26:14.167Z,100050.28
2022-08-28T02:28:41.246Z,100048.41
2022-08-28T02:31:09.495Z,100038.84
2022-08-28T02:33:41.234Z,100052.34
2022-08-28T02:36:08.927Z,100047.59
2022-08-28T02:38:36.600Z,100050.50
2022-08-28T02:41:04.363Z,100058.78
2022-08-28T02:43:31.308Z,100053.84
2022-08-28T02:45:58.951Z,100055.72
2022-08-28T02:48:29.903Z,100054.47
2022-08-28T02:50:58.330Z,100053.06
2022-08-28T02:53:25.410Z,100050.78
2022-08-28T02:55:52.068Z,100061.16
2022-08-28T02:58:18.635Z,100064.69
2022-08-28T03:00:45.471Z,100065.69
2022-08-28T03:03:12.468Z,100065.94
2022-08-28T03:05:39.111Z,100070.91
2022-08-28T03:08:06.128Z,100073.81
2022-08-28T03:10:32.845Z,100075.50
2022-08-28T03:12:59.461Z,100070.91
2022-08-28T03:15:26.818Z,100068.63
2022-08-28T03:17:54.166Z,100082.28
2022-08-28T03:20:20.942Z,100074.00
2022-08-28T03:23:06.666Z,100078.97
2022-08-28T03:25:33.295Z,100097.44
2022-08-28T03:28:00.116Z,100087.91
2022-08-28T03:30:27.296Z,100082.09
2022-08-28T03:32:54.173Z,100089.56
2022-08-28T03:35:21.952Z,100094.13
2022-08-28T03:37:48.676Z,100100.31
2022-08-28T03:40:15.644Z,100111.34
2022-08-28T03:42:42.619Z,100108.63
2022-08-28T03:45:18.069Z,100114.44
2022-08-28T03:47:44.999Z,100110.72
2022-08-28T03:50:12.618Z,100108.81
2022-08-28T03:52:40.182Z,100100.53
2022-08-28T03:55:08.735Z,100112.16
2022-08-28T03:57:35.720Z,100109.47
2022-08-28T04:00:04.796Z,100111.13
2022-08-28T04:02:31.634Z,100100.16
2022-08-28T04:04:58.372Z,100096.63
2022-08-28T04:07:25.009Z,100105.72
2022-08-28T04:09:51.928Z,100099.72
2022-08-28T04:12:18.708Z,100107.59
2022-08-28T04:14:45.406Z,100104.91
2022-08-28T04:17:12.410Z,100104.09
2022-08-28T04:19:39.109Z,100113.00
2022-08-28T04:22:05.803Z,100111.13
2022-08-28T04:24:33.319Z,100117.94
2022-08-28T04:26:59.934Z,100126.88
2022-08-28T04:29:26.629Z,100125.38
2022-08-28T04:31:53.588Z,100130.53
2022-08-28T04:34:20.328Z,100133.44
2022-08-28T04:36:46.926Z,100136.09
2022-08-28T04:39:13.852Z,100136.09
2022-08-28T04:41:40.776Z,100142.50
2022-08-28T04:44:07.758Z,100088.56
2022-08-28T04:46:35.117Z,100129.16
2022-08-28T04:49:01.876Z,100122.69
2022-08-28T04:51:28.904Z,100124.31
2022-08-28T04:53:57.180Z,100134.84
2022-08-28T04:56:24.321Z,100127.97
2022-08-28T04:58:51.045Z,100133.19
2022-08-28T05:01:20.290Z,100132.53
2022-08-28T05:03:47.966Z,100138.31
2022-08-28T05:06:15.989Z,100144.13
2022-08-28T05:08:43.187Z,100135.78
2022-08-28T05:11:11.175Z,100140.91
2022-08-28T05:13:38.390Z,100135.47
2022-08-28T05:16:05.459Z,100136.47
2022-08-28T05:18:32.593Z,100136.56
2022-08-28T05:20:59.357Z,100137.34
2022-08-28T05:23:26.302Z,100143.56
2022-08-28T05:25:52.937Z,100137.47
2022-08-28T05:28:19.794Z,100147.81
2022-08-28T05:30:47.066Z,100152.50
2022-08-28T05:33:14.936Z,100149.06
2022-08-28T05:35:42.954Z,100153.59
2022-08-28T05:38:10.370Z,100158.66
2022-08-28T05:40:44.658Z,100161.16
2022-08-28T05:43:12.696Z,100167.97
2022-08-28T05:45:39.654Z,100171.59
2022-08-28T05:48:06.458Z,100175.81
2022-08-28T05:50:33.691Z,100175.84
2022-08-28T05:53:01.413Z,100175.91
2022-08-28T05:55:28.257Z,100170.19
2022-08-28T05:57:55.110Z,100175.50
2022-08-28T06:00:24.414Z,100173.16
2022-08-28T06:02:51.074Z,100176.25
2022-08-28T06:05:19.454Z,100174.41
2022-08-28T06:07:46.085Z,100177.72
2022-08-28T06:10:12.738Z,100185.41
2022-08-28T06:12:39.905Z,100192.56
2022-08-28T06:15:07.335Z,100187.78
2022-08-28T06:17:35.028Z,100192.16
2022-08-28T06:20:02.046Z,100195.16
2022-08-28T06:22:28.837Z,100184.53
2022-08-28T06:24:55.679Z,100192.00
2022-08-28T06:27:22.766Z,100195.81
2022-08-28T06:29:49.520Z,100182.59
2022-08-28T06:32:16.231Z,100186.38
2022-08-28T06:34:43.082Z,100181.28
2022-08-28T06:37:10.336Z,100182.34
2022-08-28T06:39:37.033Z,100187.66
2022-08-28T06:42:05.515Z,100180.69
2022-08-28T06:44:32.530Z,100182.75
2022-08-28T06:47:00.457Z,100181.66
2022-08-28T06:49:28.342Z,100181.28
2022-08-28T06:51:56.319Z,100181.59
2022-08-28T06:54:23.738Z,100177.59
2022-08-28T06:56:54.762Z,100183.56
2022-08-28T06:59:21.490Z,100178.94
2022-08-28T07:01:48.530Z,100191.75
2022-08-28T07:04:15.694Z,100193.59
2022-08-28T07:06:46.861Z,100197.22
2022-08-28T07:09:14.417Z,100189.22
2022-08-28T07:11:43.909Z,100186.56
2022-08-28T07:14:10.912Z,100187.81
2022-08-28T07:16:38.579Z,100199.69
2022-08-28T07:19:10.691Z,100198.38
2022-08-28T07:21:39.244Z,100199.75
2022-08-28T07:24:07.153Z,100198.47
2022-08-28T07:26:33.798Z,100204.00
2022-08-28T07:29:10.856Z,100207.41
2022-08-28T07:31:43.033Z,100203.75
2022-08-28T07:34:11.161Z,100204.41
2022-08-28T07:36:38.111Z,100203.97
2022-08-28T07:39:05.379Z,100206.47
2022-08-28T07:41:33.081Z,100212.56
2022-08-28T07:44:18.552Z,100204.97
2022-08-28T07:46:45.935Z,100214.63
2022-08-28T07:49:13.268Z,100214.69
2022-08-28T07:51:39.931Z,100206.63
2022-08-28T07:54:07.061Z,100207.81
2022-08-28T07:56:40.747Z,100209.75
2022-08-28T07:59:08.912Z,100200.84
2022-08-28T08:01:39.170Z,100207.75
2022-08-28T08:04:07.574Z,100209.75
2022-08-28T08:06:34.637Z,100195.44
2022-08-28T08:09:06.510Z,100201.78
2022-08-28T08:11:33.216Z,100197.75
2022-08-28T08:14:05.458Z,100199.19
2022-08-28T08:16:34.651Z,100194.50
2022-08-28T08:19:01.761Z,100199.19
2022-08-28T08:21:30.396Z,100200.06
2022-08-28T08:23:58.320Z,100196.84
2022-08-28T08:26:26.060Z,100192.19
2022-08-28T08:28:52.703Z,100196.63
2022-08-28T08:31:22.185Z,100190.38
2022-08-28T08:33:50.230Z,100199.75
2022-08-28T08:36:18.023Z,100200.59
2022-08-28T08:38:44.951Z,100195.19
2022-08-28T08:41:17.679Z,100202.09
2022-08-28T08:43:57.463Z,100194.44
2022-08-28T08:46:31.120Z,100203.50
2022-08-28T08:49:01.822Z,100205.44
2022-08-28T08:51:38.585Z,100202.97
2022-08-28T08:54:08.691Z,100196.69
2022-08-28T08:56:36.108Z,100198.34
2022-08-28T08:59:05.177Z,100198.38
2022-08-28T09:01:42.291Z,100203.03
2022-08-28T09:04:22.676Z,100196.72
2022-08-28T09:06:56.633Z,100192.34
2022-08-28T09:09:31.636Z,100201.94
2022-08-28T09:12:04.148Z,100198.38
2022-08-28T09:14:51.837Z,100198.91
2022-08-28T09:17:20.172Z,100195.31
2022-08-28T09:19:47.157Z,100199.16
2022-08-28T09:22:13.925Z,100190.38
2022-08-28T09:24:41.476Z,100204.03
2022-08-28T09:27:21.112Z,100201.59
2022-08-28T09:29:54.539Z,100194.47
2022-08-28T09:32:23.684Z,100200.75
2022-08-28T09:35:01.800Z,100202.66
2022-08-28T09:37:32.187Z,100196.59
2022-08-28T09:40:15.938Z,100197.69
2022-08-28T09:43:16.729Z,100202.34
2022-08-28T09:45:43.623Z,100201.72
2022-08-28T09:48:22.063Z,100203.09
2022-08-28T09:50:57.654Z,100203.59
2022-08-28T09:53:27.094Z,100202.22
2022-08-28T09:55:53.704Z,100202.47
2022-08-28T09:58:20.687Z,100195.53
2022-08-28T10:00:53.095Z,100193.50
2022-08-28T10:03:30.124Z,100191.22
2022-08-28T10:06:08.752Z,100186.78
2022-08-28T10:08:54.948Z,100184.28
2022-08-28T10:11:27.977Z,100188.38
2022-08-28T10:14:01.087Z,100190.84
2022-08-28T10:16:34.779Z,100188.53
2022-08-28T10:19:24.407Z,100187.91
2022-08-28T10:21:57.966Z,100182.66
2022-08-28T10:24:32.797Z,100187.00
2022-08-28T10:27:00.132Z,100186.13
2022-08-28T10:29:26.795Z,100180.84
2022-08-28T10:32:12.254Z,100184.09
2022-08-28T10:34:46.925Z,100182.22
2022-08-28T10:37:22.735Z,100178.31
2022-08-28T10:39:54.178Z,100170.72
2022-08-28T10:42:35.714Z,100169.22
2022-08-28T10:45:06.892Z,100161.16
2022-08-28T10:47:36.120Z,100168.88
2022-08-28T10:50:08.333Z,100158.59
2022-08-28T10:52:52.229Z,100151.88
2022-08-28T10:55:22.840Z,100155.59
2022-08-28T10:58:23.803Z,100152.16
2022-08-28T11:00:56.697Z,100153.16
2022-08-28T11:03:34.445Z,100151.81
2022-08-28T11:06:11.455Z,100154.25
2022-08-28T11:08:41.597Z,100153.81
2022-08-28T11:11:15.036Z,100145.44
2022-08-28T11:13:57.719Z,100148.13
2022-08-28T11:16:24.486Z,100150.94
2022-08-28T11:19:21.032Z,100147.00
2022-08-28T11:21:51.914Z,100144.00
2022-08-28T11:24:28.502Z,100144.75
2022-08-28T11:27:11.183Z,100140.13
2022-08-28T11:29:56.463Z,100140.56
2022-08-28T11:32:47.086Z,100134.09
2022-08-28T11:35:20.332Z,100138.53
2022-08-28T11:37:51.301Z,100141.28
2022-08-28T11:40:30.573Z,100134.97
2022-08-28T11:43:15.894Z,100131.00
2022-08-28T11:45:45.834Z,100128.03
2022-08-28T11:48:22.696Z,100119.25
2022-08-28T11:50:57.570Z,100126.25
2022-08-28T11:53:38.817Z,100120.09
2022-08-28T11:56:16.013Z,100110.91
2022-08-28T11:59:11.607Z,100113.75
2022-08-28T12:01:39.601Z,100106.56
2022-08-28T12:04:16.629Z,100110.56
2022-08-28T12:06:52.741Z,100108.06
2022-08-28T12:09:36.414Z,100100.94
2022-08-28T12:12:05.084Z,100103.72
2022-08-28T12:14:41.089Z,100105.31
2022-08-28T12:17:20.311Z,100097.25
2022-08-28T12:19:56.161Z,100095.31
2022-08-28T12:22:24.850Z,100090.41
2022-08-28T12:24:57.202Z,100098.19
2022-08-28T12:27:24.457Z,100093.28
2022-08-28T12:29:54.305Z,100086.13
2022-08-28T12:32:28.856Z,100083.88
2022-08-28T12:35:02.036Z,100089.38
2022-08-28T12:37:52.537Z,100085.72
2022-08-28T12:40:31.906Z,100081.28
2022-08-28T12:43:09.605Z,100083.72
2022-08-28T12:45:40.780Z,100080.91
2022-08-28T12:48:17.395Z,100079.09
2022-08-28T12:50:44.292Z,100082.44
2022-08-28T12:53:13.418Z,100079.66
2022-08-28T12:55:40.278Z,100076.09
2022-08-28T12:58:33.334Z,100070.88
2022-08-28T13:01:03.947Z,100065.66
2022-08-28T13:03:33.144Z,100069.03
2022-08-28T13:06:04.892Z,100062.72
2022-08-28T13:08:32.721Z,100070.16
2022-08-28T13:11:00.405Z,100069.09
2022-08-28T13:13:33.467Z,100058.66
2022-08-28T13:16:01.545Z,100067.09
2022-08-28T13:18:34.372Z,100055.50
2022-08-28T13:21:33.252Z,100058.47
2022-08-28T13:24:20.032Z,100055.28
2022-08-28T13:26:47.785Z,100051.91
2022-08-28T13:29:19.930Z,100041.69
2022-08-28T13:31:54.967Z,100035.31
2022-08-28T13:34:26.044Z,100034.38
2022-08-28T13:36:54.296Z,100038.81
2022-08-28T13:39:21.885Z,100030.94
2022-08-28T13:41:53.976Z,100030.34
2022-08-28T13:44:29.625Z,100028.25
2022-08-28T13:46:56.958Z,100030.59
2022-08-28T13:49:23.873Z,100027.22
2022-08-28T13:51:50.574Z,100030.97
2022-08-28T13:54:18.334Z,100023.69
2022-08-28T13:56:46.503Z,100022.84
2022-08-28T13:59:13.213Z,100017.88
2022-08-28T14:01:58.816Z,100015.00
2022-08-28T14:04:26.542Z,100015.38
2022-08-28T14:06:54.016Z,100014.13
2022-08-28T14:09:20.749Z,100014.03
2022-08-28T14:11:49.711Z,100018.19
2022-08-28T14:14:21.665Z,100011.25
2022-08-28T14:16:55.253Z,100011.91
2022-08-28T14:19:22.535Z,100009.78
2022-08-28T14:21:49.290Z,100020.16
2022-08-28T14:24:16.575Z,100005.13
2022-08-28T14:26:43.715Z,100010.09
2022-08-28T14:29:11.759Z,100007.91
2022-08-28T14:31:41.016Z,100007.09
2022-08-28T14:34:08.999Z,100008.34
2022-08-28T14:36:36.642Z,100005.06
2022-08-28T14:39:06.262Z,100006.53
2022-08-28T14:41:34.220Z,100006.19
2022-08-28T14:44:01.580Z,100011.88
2022-08-28T14:46:29.980Z,100005.66
2022-08-28T14:48:58.786Z,100004.59
2022-08-28T14:51:25.485Z,99996.78
2022-08-28T14:53:53.052Z,100008.13
2022-08-28T14:56:21.086Z,99999.53
2022-08-28T14:58:47.826Z,99992.25
2022-08-28T15:01:41.297Z,99993.34
2022-08-28T15:04:10.949Z,99993.31
2022-08-28T15:06:38.143Z,99995.44
2022-08-28T15:09:05.310Z,100003.81
2022-08-28T15:11:32.281Z,100004.50
2022-08-28T15:13:58.985Z,99998.25
2022-08-28T15:16:30.294Z,100008.81
2022-08-28T15:18:58.591Z,99998.72
2022-08-28T15:21:28.201Z,99993.00
2022-08-28T15:23:55.933Z,99993.28
2022-08-28T15:26:23.411Z,99995.53
2022-08-28T15:28:50.933Z,99994.47
2022-08-28T15:31:19.064Z,100004.47
2022-08-28T15:33:48.826Z,99999.00
2022-08-28T15:36:21.556Z,100004.06
2022-08-28T15:39:16.415Z,100006.41
2022-08-28T15:41:46.979Z,100004.13
2022-08-28T15:44:15.097Z,100009.91
2022-08-28T15:46:41.951Z,100004.25
2022-08-28T15:49:10.461Z,100017.53
2022-08-28T15:51:37.225Z,100017.81
2022-08-28T15:54:04.722Z,100023.56
2022-08-28T15:56:31.595Z,100029.53
2022-08-28T15:58:58.239Z,100025.28
2022-08-28T16:01:25.157Z,100022.25
2022-08-28T16:03:52.309Z,100026.88
2022-08-28T16:06:20.202Z,100018.88
2022-08-28T16:08:47.816Z,100021.59
2022-08-28T16:11:15.881Z,100017.31
2022-08-28T16:13:42.496Z,100027.91
2022-08-28T16:16:09.129Z,100028.97
2022-08-28T16:18:35.966Z,100023.81
2022-08-28T16:21:04.926Z,100035.31
2022-08-28T16:23:32.659Z,100028.41
2022-08-28T16:25:59.873Z,100031.16
2022-08-28T16:28:27.181Z,100037.19
2022-08-28T16:30:54.140Z,100027.56
2022-08-28T16:33:22.307Z,100035.28
2022-08-28T16:35:54.990Z,100036.16
2022-08-28T16:38:22.922Z,100038.38
2022-08-28T16:40:49.769Z,100034.88
2022-08-28T16:43:16.588Z,100034.63
2022-08-28T16:45:44.779Z,100026.97
2022-08-28T16:48:12.922Z,100037.72
2022-08-28T16:50:40.507Z,100045.13
2022-08-28T16:53:07.365Z,100040.47
2022-08-28T16:55:34.763Z,100033.91
2022-08-28T16:58:01.711Z,100045.16
2022-08-28T17:00:28.348Z,100041.34
2022-08-28T17:02:55.763Z,100039.75
2022-08-28T17:05:24.800Z,100051.88
2022-08-28T17:07:52.119Z,100052.19
2022-08-28T17:10:21.080Z,100059.09
2022-08-28T17:12:47.901Z,100056.97
2022-08-28T17:15:14.859Z,100052.03
2022-08-28T17:17:45.085Z,100058.09
2022-08-28T17:20:31.931Z,100058.97
2022-08-28T17:22:59.107Z,100062.81
2022-08-28T17:25:26.036Z,100061.78
2022-08-28T17:27:53.753Z,100067.56
2022-08-28T17:30:20.761Z,100070.31
2022-08-28T17:32:48.247Z,100062.94
2022-08-28T17:35:15.727Z,100062.09
2022-08-28T17:37:42.783Z,100070.88
2022-08-28T17:40:12.676Z,100072.81
2022-08-28T17:42:40.791Z,100072.81
2022-08-28T17:45:08.517Z,100076.13
2022-08-28T17:47:35.262Z,100078.31
2022-08-28T17:50:02.575Z,100071.75
2022-08-28T17:52:30.145Z,100069.03
2022-08-28T17:54:56.929Z,100082.19
2022-08-28T17:57:24.332Z,100081.41
2022-08-28T17:59:51.359Z,100086.88
2022-08-28T18:02:18.104Z,100090.44
2022-08-28T18:04:44.860Z,100095.63
2022-08-28T18:07:11.936Z,100096.16
2022-08-28T18:09:38.579Z,100098.63
2022-08-28T18:12:19.803Z,100099.19
2022-08-28T18:15:06.798Z,100108.50
2022-08-28T18:17:39.905Z,100111.22
2022-08-28T18:20:26.846Z,100121.06
2022-08-28T18:22:59.915Z,100110.13
2022-08-28T18:26:03.052Z,100115.34
2022-08-28T18:28:42.932Z,100115.03
2022-08-28T18:31:22.872Z,100117.50
2022-08-28T18:34:03.941Z,100122.69
2022-08-28T18:36:55.774Z,100123.50
2022-08-28T18:39:45.842Z,100128.94
2022-08-28T18:42:19.318Z,100134.41
2022-08-28T18:45:15.875Z,100147.00
2022-08-28T18:47:52.595Z,100144.78
2022-08-28T18:50:45.701Z,100148.00
2022-08-28T18:53:27.794Z,100153.56
2022-08-28T18:56:11.055Z,100157.25
2022-08-28T18:58:51.798Z,100156.06
2022-08-28T19:01:38.916Z,100166.63
2022-08-28T19:04:18.843Z,100173.41
2022-08-28T19:07:05.852Z,100182.06
2022-08-28T19:09:39.136Z,100181.50
2022-08-28T19:12:25.799Z,100184.28
2022-08-28T19:14:59.847Z,100183.91
2022-08-28T19:17:49.078Z,100195.91
2022-08-28T19:20:28.809Z,100207.66
2022-08-28T19:23:17.765Z,100210.53
2022-08-28T19:25:51.006Z,100213.22
2022-08-28T19:28:37.783Z,100211.03
2022-08-28T19:31:31.944Z,100214.38
2022-08-28T19:34:25.817Z,100210.63
2022-08-28T19:37:15.823Z,100208.19
2022-08-28T19:39:56.458Z,100207.03
2022-08-28T19:42:43.851Z,100209.94
2022-08-28T19:45:21.183Z,100208.69
2022-08-28T19:48:07.801Z,100213.00
2022-08-28T19:50:41.027Z,100210.19
2022-08-28T19:53:28.908Z,100205.03
2022-08-28T19:56:01.900Z,100205.03
2022-08-28T19:58:49.082Z,100201.75
2022-08-28T20:01:23.332Z,100205.88
2022-08-28T20:04:09.850Z,100211.34
2022-08-28T20:06:50.794Z,100209.94
2022-08-28T20:09:44.841Z,100218.69
2022-08-28T20:12:38.777Z,100223.66
2022-08-28T20:15:25.808Z,100230.50
2022-08-28T20:18:07.820Z,100225.06
2022-08-28T20:20:49.807Z,100227.97
2022-08-28T20:23:43.796Z,100229.47
2022-08-28T20:26:30.849Z,100230.63
2022-08-28T20:29:10.779Z,100234.50
2022-08-28T20:32:04.846Z,100230.53
2022-08-28T20:34:52.834Z,100235.69
2022-08-28T20:37:25.895Z,100234.16
2022-08-28T20:40:15.910Z,100244.84
2022-08-28T20:42:56.847Z,100234.25
2022-08-28T20:45:43.787Z,100235.31
2022-08-28T20:48:16.932Z,100237.09
2022-08-28T20:51:03.783Z,100230.94
2022-08-28T20:53:38.143Z,100240.13
2022-08-28T20:56:24.804Z,100234.59
2022-08-28T20:59:04.791Z,100235.66
2022-08-28T21:01:58.818Z,100237.75
2022-08-28T21:04:52.813Z,100229.31
2022-08-28T21:07:46.843Z,100225.28
2022-08-28T21:10:40.819Z,100231.53
2022-08-28T21:13:34.809Z,100228.25
2022-08-28T21:16:30.856Z,100234.19
2022-08-28T21:19:17.838Z,100233.13
2022-08-28T21:21:57.809Z,100226.75
2022-08-28T21:24:51.864Z,100231.09
2022-08-28T21:27:45.870Z,100222.78
2022-08-28T21:30:39.919Z,100230.75
2022-08-28T21:33:26.924Z,100233.22
2022-08-28T21:35:59.938Z,100229.56
2022-08-28T21:38:46.847Z,100234.44
2022-08-28T21:41:28.793Z,100227.59
2022-08-28T21:44:15.842Z,100236.25
2022-08-28T21:46:48.895Z,100235.91
2022-08-28T21:49:35.846Z,100243.69
2022-08-28T21:52:11.878Z,100242.44
2022-08-28T21:55:03.809Z,100245.84
2022-08-28T21:57:36.948Z,100249.09
2022-08-28T22:00:28.806Z,100253.75
2022-08-28T22:03:01.901Z,100256.88
2022-08-28T22:05:49.831Z,100252.06
2022-08-28T22:08:24.636Z,100256.59
2022-08-28T22:11:11.781Z,100259.78
2022-08-28T22:13:52.802Z,100262.34
2022-08-28T22:16:46.889Z,100255.25
2022-08-28T22:19:40.792Z,100259.06
2022-08-28T22:22:52.839Z,100266.59
2022-08-28T22:25:46.832Z,100259.03
2022-08-28T22:28:33.851Z,100267.88
2022-08-28T22:31:13.763Z,100264.31
2022-08-28T22:34:07.831Z,100263.25
2022-08-28T22:37:01.785Z,100263.16
2022-08-28T22:39:48.785Z,100260.06
2022-08-28T22:42:29.780Z,100233.28
2022-08-28T22:45:23.785Z,100262.97
2022-08-28T22:48:10.876Z,100264.72
2022-08-28T22:50:43.897Z,100260.94
2022-08-28T22:53:30.788Z,100257.75
2022-08-28T22:56:03.902Z,100256.34
2022-08-28T22:58:50.804Z,100248.69
2022-08-28T23:01:25.932Z,100250.47
2022-08-28T23:04:12.975Z,100246.84
2022-08-28T23:06:45.861Z,100253.09
2022-08-28T23:09:32.824Z,100252.63
2022-08-28T23:12:19.849Z,100258.16
2022-08-28T23:15:13.822Z,100261.25
2022-08-28T23:18:07.826Z,100256.88
2022-08-28T23:20:54.785Z,100261.47
2022-08-28T23:23:27.850Z,100257.47
2022-08-28T23:26:17.780Z,100268.50
2022-08-28T23:28:57.751Z,100265.53
2022-08-28T23:31:51.969Z,100272.22
2022-08-28T23:34:38.835Z,100274.47
2022-08-28T23:37:11.983Z,100278.25
2022-08-28T23:39:58.848Z,100277.66
2022-08-28T23:42:33.897Z,100292.28
2022-08-28T23:45:20.799Z,100280.13
2022-08-28T23:47:54.848Z,100289.34
2022-08-28T23:50:42.874Z,100291.47
2022-08-28T23:53:16.898Z,100292.84
2022-08-28T23:56:03.822Z,100290.34
2022-08-28T23:58:44.474Z,100292.91
